createdAt,value
2022-12-19T00:00:08.667Z,39.77
2022-12-19T00:02:42.523Z,42.83
2022-12-19T00:05:10.955Z,35.60
2022-12-19T00:07:38.326Z,42.90
2022-12-19T00:10:07.207Z,42.87
2022-12-19T00:12:34.507Z,42.57
2022-12-19T00:15:01.853Z,39.10
2022-12-19T00:17:29.321Z,41.73
2022-12-19T00:19:56.570Z,35.20
2022-12-19T00:22:23.787Z,42.63
2022-12-19T00:24:51.065Z,45.13
2022-12-19T00:27:18.379Z,38.33
2022-12-19T00:29:45.785Z,45.17
2022-12-19T00:32:13.685Z,45.47
2022-12-19T00:34:43.402Z,46.73
2022-12-19T00:37:12.098Z,42.13
2022-12-19T00:39:39.355Z,46.67
2022-12-19T00:42:06.705Z,45.40
2022-12-19T00:44:34.103Z,44.87
2022-12-19T00:47:01.311Z,44.20
2022-12-19T00:49:28.727Z,46.33
2022-12-19T00:51:58.153Z,43.87
2022-12-19T00:54:25.577Z,46.13
2022-12-19T00:56:53.409Z,44.67
2022-12-19T00:59:26.648Z,39.50
2022-12-19T01:01:54.428Z,43.47
2022-12-19T01:04:29.084Z,43.97
2022-12-19T01:06:59.629Z,44.27
2022-12-19T01:09:31.048Z,44.97
2022-12-19T01:12:17.249Z,42.73
2022-12-19T01:14:46.524Z,42.83
2022-12-19T01:17:13.947Z,42.87
2022-12-19T01:19:44.304Z,36.47
2022-12-19T01:22:13.565Z,40.83
2022-12-19T01:24:41.665Z,32.33
2022-12-19T01:27:09.712Z,42.23
2022-12-19T01:32:43.922Z,38.53
2022-12-19T01:35:21.808Z,43.47
2022-12-19T01:38:03.344Z,41.93
2022-12-19T01:40:35.507Z,42.23
2022-12-19T01:43:03.196Z,42.20
2022-12-19T01:45:34.894Z,37.13
2022-12-19T01:48:20.758Z,35.67
2022-12-19T01:51:12.467Z,37.03
2022-12-19T01:54:08.114Z,37.40
2022-12-19T01:56:43.088Z,39.57
2022-12-19T01:59:19.586Z,41.43
2022-12-19T02:01:51.597Z,40.50
2022-12-19T02:04:20.382Z,30.97
2022-12-19T02:06:48.627Z,39.47
2022-12-19T02:09:16.391Z,32.47
2022-12-19T02:11:43.769Z,39.23
2022-12-19T02:14:10.970Z,32.57
2022-12-19T02:17:03.519Z,41.63
2022-12-19T02:20:08.259Z,38.70
2022-12-19T02:22:48.814Z,34.93
2022-12-19T02:25:54.847Z,37.03
2022-12-19T02:28:51.082Z,34.90
2022-12-19T02:31:46.110Z,35.17
2022-12-19T02:34:19.044Z,23.47
2022-12-19T02:36:53.922Z,25.23
2022-12-19T02:39:29.338Z,31.57
2022-12-19T02:42:00.443Z,33.63
2022-12-19T02:44:45.409Z,27.10
2022-12-19T02:47:14.345Z,27.03
2022-12-19T02:49:41.562Z,30.17
2022-12-19T02:52:34.458Z,28.37
2022-12-19T02:55:06.923Z,27.43
2022-12-19T02:58:01.487Z,25.63
2022-12-19T03:00:29.290Z,27.57
2022-12-19T03:03:00.648Z,24.87
2022-12-19T03:05:40.560Z,20.37
2022-12-19T03:08:28.060Z,26.43
2022-12-19T03:11:04.301Z,22.53
2022-12-19T03:14:11.561Z,21.47
2022-12-19T03:16:39.287Z,22.87
2022-12-19T03:19:14.507Z,20.33
2022-12-19T03:21:50.919Z,23.60
2022-12-19T03:24:19.188Z,22.77
2022-12-19T03:27:09.936Z,17.43
2022-12-19T03:29:54.075Z,21.33
2022-12-19T03:32:23.756Z,18.33
2022-12-19T03:35:08.837Z,21.73
2022-12-19T03:37:42.291Z,21.03
2022-12-19T03:40:22.887Z,22.20
2022-12-19T03:43:09.240Z,18.47
2022-12-19T03:46:00.654Z,19.37
2022-12-19T03:48:33.065Z,19.80
2022-12-19T03:51:27.329Z,20.80
2022-12-19T03:54:13.712Z,18.03
2022-12-19T03:56:53.452Z,22.10
2022-12-19T03:59:46.726Z,23.20
2022-12-19T04:02:15.853Z,21.77
2022-12-19T04:04:46.307Z,17.87
2022-12-19T04:07:15.178Z,19.50
2022-12-19T04:09:45.011Z,20.30
2022-12-19T04:12:17.559Z,20.67
2022-12-19T04:14:45.451Z,19.37
2022-12-19T04:17:18.353Z,22.03
2022-12-19T04:20:07.265Z,22.53
2022-12-19T04:23:03.210Z,20.30
2022-12-19T04:25:46.948Z,21.37
2022-12-19T04:28:26.765Z,22.60
2022-12-19T04:30:55.146Z,23.07
2022-12-19T04:33:22.321Z,24.73
2022-12-19T04:35:49.631Z,23.70
2022-12-19T04:38:16.860Z,21.97
2022-12-19T04:40:44.057Z,25.23
2022-12-19T04:43:11.236Z,24.43
2022-12-19T04:45:40.539Z,25.77
2022-12-19T04:48:08.966Z,18.37
2022-12-19T04:50:37.020Z,19.70
2022-12-19T04:53:04.605Z,19.57
2022-12-19T04:55:32.191Z,21.97
2022-12-19T04:57:59.396Z,16.67
2022-12-19T05:00:26.682Z,20.60
2022-12-19T05:02:54.341Z,20.97
2022-12-19T05:05:21.560Z,18.73
2022-12-19T05:07:48.866Z,17.67
2022-12-19T05:10:16.142Z,16.87
2022-12-19T05:12:43.739Z,21.10
2022-12-19T05:15:12.133Z,19.83
2022-12-19T05:17:39.372Z,20.00
2022-12-19T05:20:07.454Z,16.90
2022-12-19T05:22:34.688Z,21.83
2022-12-19T05:25:02.074Z,20.80
2022-12-19T05:27:29.235Z,15.00
2022-12-19T05:29:56.418Z,21.03
2022-12-19T05:32:23.893Z,23.03
2022-12-19T05:34:50.971Z,26.40
2022-12-19T05:37:18.063Z,21.83
2022-12-19T05:39:45.211Z,23.20
2022-12-19T05:42:14.673Z,25.20
2022-12-19T05:44:41.926Z,31.80
2022-12-19T05:47:09.205Z,19.97
2022-12-19T05:49:36.318Z,23.13
2022-12-19T05:52:03.471Z,24.30
2022-12-19T05:54:30.899Z,23.87
2022-12-19T05:56:58.446Z,20.57
2022-12-19T05:59:26.922Z,17.90
2022-12-19T06:01:54.822Z,20.97
2022-12-19T06:04:22.056Z,20.33
2022-12-19T06:06:49.247Z,25.83
2022-12-19T06:09:16.999Z,27.23
2022-12-19T06:11:44.256Z,28.67
2022-12-19T06:14:11.524Z,21.87
2022-12-19T06:16:38.765Z,49.97
2022-12-19T06:38:46.990Z,20.30
2022-12-19T06:41:34.166Z,24.90
2022-12-19T06:44:03.870Z,22.30
2022-12-19T06:46:32.846Z,30.23
2022-12-19T06:49:00.956Z,25.90
2022-12-19T06:51:28.673Z,25.60
2022-12-19T06:53:56.349Z,22.20
2022-12-19T06:56:24.288Z,34.73
2022-12-19T06:58:51.990Z,39.47
2022-12-19T07:01:23.410Z,50.13
2022-12-19T07:03:51.196Z,33.03
2022-12-19T07:06:18.968Z,42.10
2022-12-19T07:08:46.386Z,47.67
2022-12-19T07:11:14.033Z,26.77
2022-12-19T07:13:41.672Z,26.40
2022-12-19T07:16:09.760Z,32.13
2022-12-19T07:18:40.041Z,24.03
2022-12-19T07:21:14.949Z,28.27
2022-12-19T07:23:55.951Z,26.87
2022-12-19T07:26:23.707Z,24.13
2022-12-19T07:28:54.692Z,21.17
2022-12-19T07:31:26.361Z,23.20
2022-12-19T07:33:54.201Z,23.17
2022-12-19T07:36:23.487Z,22.77
2022-12-19T07:38:54.993Z,20.60
2022-12-19T07:41:22.364Z,21.13
2022-12-19T07:43:50.497Z,18.80
2022-12-19T07:46:17.839Z,20.33
2022-12-19T07:48:47.772Z,18.77
2022-12-19T07:51:17.655Z,23.73
2022-12-19T07:53:45.302Z,21.90
2022-12-19T07:56:12.476Z,21.97
2022-12-19T07:58:40.107Z,19.73
2022-12-19T08:01:07.850Z,19.30
2022-12-19T08:03:36.145Z,18.63
2022-12-19T08:06:05.651Z,19.80
2022-12-19T08:08:33.902Z,20.57
2022-12-19T08:11:19.030Z,19.00
2022-12-19T08:13:48.116Z,19.97
2022-12-19T08:16:15.692Z,17.83
2022-12-19T08:18:43.134Z,23.57
2022-12-19T08:21:10.784Z,24.67
2022-12-19T08:23:41.037Z,14.30
2022-12-19T08:26:13.832Z,21.03
2022-12-19T08:28:41.405Z,18.67
2022-12-19T08:31:10.922Z,21.83
2022-12-19T08:33:38.392Z,22.83
2022-12-19T08:36:14.445Z,23.57
2022-12-19T08:38:42.103Z,25.67
2022-12-19T08:41:10.063Z,27.13
2022-12-19T08:43:37.377Z,21.80
2022-12-19T08:46:05.623Z,20.20
2022-12-19T08:48:33.809Z,20.43
2022-12-19T08:51:04.199Z,26.73
2022-12-19T08:53:33.393Z,25.33
2022-12-19T08:56:02.964Z,19.97
2022-12-19T08:58:30.897Z,27.03
2022-12-19T09:01:05.578Z,20.67
2022-12-19T09:03:42.857Z,24.57
2022-12-19T09:09:15.581Z,21.73
2022-12-19T09:11:47.354Z,21.37
2022-12-19T09:14:21.394Z,21.67
2022-12-19T09:16:49.356Z,15.23
2022-12-19T09:19:20.381Z,20.73
2022-12-19T09:21:48.148Z,15.83
2022-12-19T09:24:16.249Z,21.00
2022-12-19T09:26:45.026Z,20.27
2022-12-19T09:29:20.480Z,20.40
2022-12-19T09:31:55.708Z,26.10
2022-12-19T09:34:24.862Z,21.37
2022-12-19T09:36:59.772Z,25.77
2022-12-19T09:39:27.447Z,22.40
2022-12-19T09:42:03.794Z,22.00
2022-12-19T09:44:51.734Z,17.07
2022-12-19T09:47:24.241Z,19.13
2022-12-19T09:49:54.593Z,16.43
2022-12-19T09:52:39.514Z,29.87
2022-12-19T09:55:45.952Z,15.17
2022-12-19T09:58:13.386Z,14.77
2022-12-19T10:00:45.056Z,16.53
2022-12-19T10:03:12.658Z,14.80
2022-12-19T10:07:22.102Z,14.40
2022-12-19T10:10:46.346Z,18.20
2022-12-19T10:12:45.911Z,15.97
2022-12-19T10:15:27.597Z,16.70
2022-12-19T10:18:00.993Z,20.70
2022-12-19T10:20:33.201Z,23.27
2022-12-19T10:23:17.006Z,14.77
2022-12-19T10:26:18.452Z,18.93
2022-12-19T10:29:17.550Z,14.67
2022-12-19T10:31:59.231Z,15.17
2022-12-19T10:34:40.826Z,15.90
2022-12-19T10:37:39.822Z,17.43
2022-12-19T10:40:20.985Z,21.23
2022-12-19T10:43:10.866Z,17.07
2022-12-19T10:45:50.128Z,16.50
2022-12-19T10:48:31.259Z,34.00
2022-12-19T10:51:06.202Z,16.40
2022-12-19T10:53:34.956Z,49.37
2022-12-19T10:56:13.111Z,33.63
2022-12-19T10:58:45.078Z,39.70
2022-12-19T11:01:47.195Z,24.63
2022-12-19T11:04:35.127Z,25.67
2022-12-19T11:07:07.449Z,17.37
2022-12-19T11:09:39.811Z,22.80
2022-12-19T11:16:41.822Z,24.47
2022-12-19T11:18:13.294Z,40.67
2022-12-19T11:28:06.738Z,18.27
2022-12-19T11:29:54.650Z,16.23
2022-12-19T11:29:55.167Z,17.20
2022-12-19T11:30:38.171Z,24.53
2022-12-19T11:33:16.363Z,23.93
2022-12-19T11:35:53.428Z,25.17
2022-12-19T11:38:36.994Z,27.30
2022-12-19T11:41:28.457Z,20.40
2022-12-19T11:43:59.674Z,17.50
2022-12-19T11:46:34.907Z,23.87
2022-12-19T11:49:29.455Z,24.70
2022-12-19T11:53:02.746Z,21.17
2022-12-19T11:56:16.410Z,20.80
2022-12-19T11:58:51.325Z,15.77
2022-12-19T12:01:38.758Z,20.93
2022-12-19T12:04:24.824Z,21.23
2022-12-19T12:06:54.901Z,21.13
2022-12-19T12:16:00.738Z,25.93
2022-12-19T12:19:04.512Z,19.17
2022-12-19T12:28:26.489Z,30.97
2022-12-19T12:31:26.379Z,24.70
2022-12-19T12:31:39.937Z,31.47
2022-12-19T12:31:45.130Z,16.60
2022-12-19T12:31:58.469Z,17.60
2022-12-19T12:36:53.016Z,28.93
2022-12-19T12:38:26.499Z,21.13
2022-12-19T12:41:55.000Z,36.87
2022-12-19T12:44:32.552Z,18.67
2022-12-19T12:47:15.370Z,38.27
2022-12-19T12:49:44.292Z,44.30
2022-12-19T12:52:20.667Z,28.97
2022-12-19T12:54:50.636Z,33.80
2022-12-19T12:57:38.763Z,38.83
2022-12-19T13:00:27.067Z,20.10
2022-12-19T13:03:11.588Z,24.90
2022-12-19T13:05:55.776Z,36.97
2022-12-19T13:08:27.906Z,39.80
2022-12-19T13:11:53.211Z,39.07
2022-12-19T13:14:36.070Z,22.50
2022-12-19T13:17:12.727Z,24.80
2022-12-19T13:20:05.427Z,26.53
2022-12-19T13:22:34.117Z,34.73
2022-12-19T13:25:02.399Z,40.43
2022-12-19T13:27:34.545Z,45.37
2022-12-19T13:30:02.139Z,26.00
2022-12-19T13:32:41.661Z,28.00
2022-12-19T13:36:32.218Z,21.90
2022-12-19T13:40:00.348Z,40.90
2022-12-19T13:41:49.199Z,32.93
2022-12-19T13:44:22.041Z,31.83
2022-12-19T13:46:52.534Z,28.50
2022-12-19T13:49:28.934Z,29.97
2022-12-19T13:52:01.489Z,29.13
2022-12-19T13:54:34.919Z,31.57
2022-12-19T13:57:08.201Z,26.50
2022-12-19T13:59:40.196Z,31.43
2022-12-19T14:02:15.950Z,24.07
2022-12-19T14:04:45.348Z,29.93
2022-12-19T14:07:40.045Z,37.27
2022-12-19T14:11:33.968Z,33.73
2022-12-19T14:13:57.124Z,30.93
2022-12-19T14:16:39.785Z,30.83
2022-12-19T14:19:29.240Z,29.13
2022-12-19T14:22:20.672Z,30.53
2022-12-19T14:25:33.113Z,31.53
2022-12-19T14:28:21.004Z,45.37
2022-12-19T14:30:55.591Z,58.07
2022-12-19T14:33:43.498Z,35.13
2022-12-19T14:36:26.211Z,62.80
2022-12-19T14:39:22.027Z,58.20
2022-12-19T14:42:04.672Z,50.40
2022-12-19T14:53:52.336Z,53.13
2022-12-19T14:53:52.563Z,37.23
2022-12-19T14:54:40.480Z,37.87
2022-12-19T14:54:41.627Z,41.27
2022-12-19T14:59:06.720Z,30.93
2022-12-19T15:01:36.563Z,35.90
2022-12-19T15:04:49.513Z,26.27
2022-12-19T15:07:07.655Z,27.90
2022-12-19T15:11:05.269Z,34.57
2022-12-19T15:14:47.998Z,48.37
2022-12-19T15:16:27.833Z,41.37
2022-12-19T15:19:01.906Z,68.10
2022-12-19T15:21:31.778Z,51.90
2022-12-19T15:23:59.372Z,61.60
2022-12-19T15:26:36.864Z,60.77
2022-12-19T15:29:16.596Z,59.67
2022-12-19T15:31:47.349Z,50.50
2022-12-19T15:34:40.164Z,45.83
2022-12-19T15:37:13.730Z,45.83
2022-12-19T15:39:46.463Z,39.53
2022-12-19T15:42:22.938Z,41.13
2022-12-19T15:44:54.095Z,55.73
2022-12-19T15:47:51.153Z,61.87
2022-12-19T15:50:39.392Z,52.83
2022-12-19T15:53:42.700Z,50.17
2022-12-19T15:56:33.425Z,33.20
2022-12-19T15:59:05.293Z,43.23
2022-12-19T16:01:34.542Z,67.43
2022-12-19T16:04:14.798Z,45.80
2022-12-19T16:06:42.656Z,81.37
2022-12-19T16:09:39.397Z,133.47
2022-12-19T16:12:07.435Z,125.20
2022-12-19T16:14:48.981Z,190.87
2022-12-19T16:17:26.099Z,105.30
2022-12-19T16:19:56.655Z,69.60
2022-12-19T16:22:28.192Z,63.83
2022-12-19T16:24:59.489Z,79.10
2022-12-19T16:27:29.861Z,105.37
2022-12-19T16:30:04.423Z,101.17
2022-12-19T16:32:32.070Z,91.63
2022-12-19T16:35:05.750Z,86.43
2022-12-19T16:37:33.788Z,83.63
2022-12-19T16:40:03.054Z,74.87
2022-12-19T16:42:34.258Z,70.00
2022-12-19T16:45:16.968Z,66.27
2022-12-19T16:47:45.888Z,77.90
2022-12-19T16:50:30.847Z,86.90
2022-12-19T16:52:58.549Z,74.73
2022-12-19T16:55:27.082Z,73.10
2022-12-19T16:57:56.747Z,79.07
2022-12-19T17:00:26.456Z,80.80
2022-12-19T17:03:11.692Z,92.23
2022-12-19T17:05:39.269Z,69.47
2022-12-19T17:08:13.209Z,77.93
2022-12-19T17:10:44.576Z,49.83
2022-12-19T17:13:21.599Z,33.27
2022-12-19T17:15:54.496Z,34.07
2022-12-19T17:18:27.707Z,32.03
2022-12-19T17:20:57.282Z,32.37
2022-12-19T17:23:26.460Z,35.00
2022-12-19T17:25:55.349Z,31.37
2022-12-19T17:28:23.631Z,34.80
2022-12-19T17:30:55.672Z,69.10
2022-12-19T17:33:34.302Z,89.73
2022-12-19T17:36:03.294Z,77.23
2022-12-19T17:38:31.172Z,75.37
2022-12-19T17:41:00.573Z,77.17
2022-12-19T17:43:28.433Z,96.93
2022-12-19T17:45:56.022Z,103.40
2022-12-19T17:48:32.842Z,109.20
2022-12-19T17:51:00.815Z,66.43
2022-12-19T17:53:28.441Z,86.97
2022-12-19T17:55:56.101Z,112.70
2022-12-19T17:58:24.369Z,91.03
2022-12-19T18:00:53.051Z,74.43
2022-12-19T18:03:27.410Z,62.87
2022-12-19T18:05:55.932Z,55.50
2022-12-19T18:08:32.150Z,48.43
2022-12-19T18:11:05.103Z,65.43
2022-12-19T18:13:33.295Z,58.83
2022-12-19T18:16:02.842Z,42.33
2022-12-19T18:18:40.574Z,31.63
2022-12-19T18:21:11.666Z,45.07
2022-12-19T18:23:43.066Z,66.90
2022-12-19T18:26:12.294Z,47.23
2022-12-19T18:28:41.251Z,44.13
2022-12-19T18:31:26.417Z,61.70
2022-12-19T18:34:03.607Z,68.27
2022-12-19T18:36:41.021Z,38.63
2022-12-19T18:39:23.288Z,41.63
2022-12-19T18:41:53.971Z,52.83
2022-12-19T18:44:26.668Z,47.93
2022-12-19T18:46:54.546Z,48.40
2022-12-19T18:49:26.409Z,36.47
2022-12-19T18:51:56.236Z,34.07
2022-12-19T18:57:09.262Z,47.03
2022-12-19T18:59:38.019Z,62.07
2022-12-19T19:02:24.872Z,48.33
2022-12-19T19:04:56.562Z,38.00
2022-12-19T19:07:27.705Z,42.60
2022-12-19T19:09:56.229Z,38.70
2022-12-19T19:12:29.329Z,32.30
2022-12-19T19:14:57.368Z,69.93
2022-12-19T19:17:31.335Z,83.73
2022-12-19T19:20:04.878Z,71.13
2022-12-19T19:22:49.711Z,49.40
2022-12-19T19:25:21.215Z,66.10
2022-12-19T19:27:51.541Z,67.07
2022-12-19T19:30:31.757Z,46.30
2022-12-19T19:33:11.131Z,69.67
2022-12-19T19:35:39.498Z,53.57
2022-12-19T19:38:09.317Z,80.83
2022-12-19T19:40:42.716Z,49.47
2022-12-19T19:43:14.868Z,39.00
2022-12-19T19:45:57.626Z,35.63
2022-12-19T19:48:29.221Z,34.60
2022-12-19T19:51:00.104Z,41.27
2022-12-19T19:53:28.274Z,30.03
2022-12-19T19:56:03.029Z,33.17
2022-12-19T20:01:24.534Z,32.40
2022-12-19T20:03:52.956Z,39.57
2022-12-19T20:06:21.121Z,39.27
2022-12-19T20:08:53.011Z,33.57
2022-12-19T20:14:02.290Z,23.77
2022-12-19T20:16:29.578Z,27.57
2022-12-19T20:18:56.863Z,32.03
2022-12-19T20:21:25.316Z,30.53
2022-12-19T20:23:52.794Z,39.23
2022-12-19T20:26:20.417Z,37.23
2022-12-19T20:28:50.381Z,62.93
2022-12-19T20:31:26.547Z,47.70
2022-12-19T20:33:57.189Z,51.23
2022-12-19T20:36:25.411Z,38.57
2022-12-19T20:38:52.812Z,54.33
2022-12-19T20:41:20.053Z,141.63
2022-12-19T20:43:48.436Z,71.70
2022-12-19T20:46:18.027Z,52.10
2022-12-19T20:48:46.575Z,53.40
2022-12-19T20:51:15.422Z,43.70
2022-12-19T20:53:43.509Z,47.97
2022-12-19T20:56:15.055Z,45.00
2022-12-19T20:58:42.887Z,67.63
2022-12-19T21:01:13.503Z,68.63
2022-12-19T21:03:41.540Z,44.83
2022-12-19T21:06:10.664Z,35.73
2022-12-19T21:08:39.028Z,38.80
2022-12-19T21:11:07.810Z,38.27
2022-12-19T21:13:36.055Z,43.33
2022-12-19T21:16:07.270Z,27.13
2022-12-19T21:18:35.706Z,58.33
2022-12-19T21:21:04.132Z,41.57
2022-12-19T21:23:31.373Z,54.27
2022-12-19T21:26:01.246Z,43.57
2022-12-19T21:28:28.679Z,49.80
2022-12-19T21:31:00.325Z,48.40
2022-12-19T21:33:28.047Z,56.13
2022-12-19T21:35:55.456Z,51.10
2022-12-19T21:38:23.379Z,61.53
2022-12-19T21:40:50.692Z,56.60
2022-12-19T21:43:17.810Z,48.53
2022-12-19T21:45:45.094Z,44.93
2022-12-19T21:48:12.311Z,51.93
2022-12-19T21:50:39.420Z,49.77
2022-12-19T21:53:06.697Z,47.07
2022-12-19T21:55:33.933Z,38.43
2022-12-19T21:58:01.199Z,50.43
2022-12-19T22:00:29.997Z,70.50
2022-12-19T22:03:13.233Z,51.70
2022-12-19T22:05:41.971Z,40.93
2022-12-19T22:08:11.400Z,44.37
2022-12-19T22:10:40.185Z,99.70
2022-12-19T22:13:07.339Z,113.27
2022-12-19T22:15:36.660Z,103.23
2022-12-19T22:18:04.270Z,93.97
2022-12-19T22:20:31.449Z,56.33
2022-12-19T22:23:01.460Z,103.60
2022-12-19T22:25:28.748Z,145.37
2022-12-19T22:27:59.444Z,116.27
2022-12-19T22:30:26.644Z,128.47
2022-12-19T22:32:57.069Z,69.10
2022-12-19T22:35:24.355Z,49.40
2022-12-19T22:37:51.578Z,50.37
2022-12-19T22:40:18.856Z,68.40
2022-12-19T22:42:46.043Z,35.23
2022-12-19T22:45:13.287Z,33.37
2022-12-19T22:47:43.724Z,30.27
2022-12-19T22:50:11.115Z,35.77
2022-12-19T22:52:39.564Z,38.13
2022-12-19T22:55:07.342Z,37.77
2022-12-19T22:57:34.724Z,32.57
2022-12-19T23:00:01.952Z,28.20
2022-12-19T23:02:29.409Z,29.07
2022-12-19T23:04:56.688Z,46.50
2022-12-19T23:07:23.922Z,55.03
2022-12-19T23:09:51.105Z,53.27
2022-12-19T23:12:18.429Z,55.57
2022-12-19T23:14:45.927Z,45.57
2022-12-19T23:17:13.050Z,33.63
2022-12-19T23:19:40.466Z,36.83
2022-12-19T23:22:07.685Z,41.60
2022-12-19T23:24:35.483Z,31.63
2022-12-19T23:27:02.908Z,54.10
2022-12-19T23:29:30.308Z,41.50
2022-12-19T23:31:57.480Z,34.10
2022-12-19T23:34:24.683Z,32.90
2022-12-19T23:39:39.189Z,38.93
2022-12-19T23:42:06.413Z,44.67
2022-12-19T23:44:33.723Z,38.73
2022-12-19T23:47:03.530Z,32.63
2022-12-19T23:49:32.326Z,28.50
2022-12-19T23:51:59.472Z,31.23
2022-12-19T23:54:26.913Z,25.73
2022-12-19T23:56:54.237Z,28.03
2022-12-19T23:59:21.442Z,29.57
